Terminal Aerodrome Forecast
Issued by NWS Sterling, VA

Current Version | Previous Version | Graphics & Text | Print | Product List | Glossary On
Versions: 1 2 3 4 5 6 7 8 9 10 11 12 13 14
000
FTUS41 KLWX 210520
TAFMRB
TAF
KMRB 210520Z 2106/2206 20006KT P6SM BKN250
     FM211700 19010G18KT P6SM SCT250
     FM212300 19006KT P6SM SCT050 SCT250
     FM220500 VRB03KT P6SM BKN060=

USA.gov is the U.S. government's official web portal to all federal, state and local government web resources and services.